createdAt,value
2018-05-14T00:00:16.794Z,26.30
2018-05-14T00:02:44.323Z,24.63
2018-05-14T00:05:11.855Z,22.83
2018-05-14T00:07:39.371Z,26.20
2018-05-14T00:10:06.884Z,22.83
2018-05-14T00:12:34.413Z,27.40
2018-05-14T00:15:01.935Z,24.00
2018-05-14T00:17:30.218Z,25.97
2018-05-14T00:19:58.512Z,23.67
2018-05-14T00:22:26.078Z,23.73
2018-05-14T00:24:53.610Z,23.23
2018-05-14T00:27:21.908Z,26.70
2018-05-14T00:29:49.425Z,25.23
2018-05-14T00:32:16.937Z,25.83
2018-05-14T00:34:44.493Z,26.07
2018-05-14T00:37:12.017Z,25.73
2018-05-14T00:39:40.295Z,27.00
2018-05-14T00:42:08.704Z,27.27
2018-05-14T00:44:36.268Z,26.30
2018-05-14T00:47:03.793Z,23.83
2018-05-14T00:49:32.096Z,25.60
2018-05-14T00:51:59.638Z,25.17
2018-05-14T00:54:27.934Z,23.20
2018-05-14T00:56:55.463Z,23.63
2018-05-14T00:59:23.057Z,28.13
2018-05-14T01:01:50.572Z,24.93
2018-05-14T01:04:18.100Z,23.40
2018-05-14T01:06:45.621Z,24.13
2018-05-14T01:09:13.923Z,23.53
2018-05-14T01:11:41.483Z,22.40
2018-05-14T01:14:08.997Z,22.27
2018-05-14T01:16:36.603Z,23.77
2018-05-14T01:19:04.367Z,23.50
2018-05-14T01:21:31.919Z,25.80
2018-05-14T01:23:59.473Z,24.43
2018-05-14T01:26:27.768Z,23.43
2018-05-14T01:28:55.313Z,22.90
2018-05-14T01:31:22.822Z,22.93
2018-05-14T01:33:50.404Z,21.90
2018-05-14T01:36:18.007Z,23.90
2018-05-14T01:38:45.528Z,24.13
2018-05-14T01:41:13.843Z,27.00
2018-05-14T01:43:41.401Z,21.57
2018-05-14T01:46:08.950Z,23.53
2018-05-14T01:48:36.469Z,27.43
2018-05-14T01:51:03.994Z,24.00
2018-05-14T01:53:31.529Z,23.70
2018-05-14T01:55:59.099Z,25.70
2018-05-14T01:58:26.613Z,23.70
2018-05-14T02:00:54.126Z,24.50
2018-05-14T02:03:21.651Z,27.43
2018-05-14T02:05:49.944Z,25.50
2018-05-14T02:08:17.501Z,25.93
2018-05-14T02:10:45.037Z,24.23
2018-05-14T02:13:13.333Z,24.67
2018-05-14T02:15:41.729Z,29.07
2018-05-14T02:18:09.269Z,26.93
2018-05-14T02:20:37.547Z,26.77
2018-05-14T02:23:05.836Z,28.43
2018-05-14T02:25:33.360Z,26.60
2018-05-14T02:28:00.878Z,28.33
2018-05-14T02:30:28.399Z,29.87
2018-05-14T02:32:55.962Z,29.30
2018-05-14T02:35:24.368Z,27.07
2018-05-14T02:37:51.909Z,27.27
2018-05-14T02:40:19.472Z,33.13
2018-05-14T02:42:47.042Z,29.10
2018-05-14T02:45:14.605Z,28.80
2018-05-14T02:47:42.144Z,28.33
2018-05-14T02:50:10.437Z,28.87
2018-05-14T02:52:37.988Z,29.03
2018-05-14T02:55:05.515Z,30.87
2018-05-14T02:57:33.035Z,28.27
2018-05-14T03:00:00.586Z,27.40
2018-05-14T03:02:28.126Z,30.50
2018-05-14T03:04:55.798Z,30.53
2018-05-14T03:07:23.220Z,30.10
2018-05-14T03:09:51.238Z,33.17
2018-05-14T03:12:18.803Z,34.03
2018-05-14T03:14:46.329Z,31.77
2018-05-14T03:17:14.632Z,34.00
2018-05-14T03:19:42.147Z,37.03
2018-05-14T03:22:10.440Z,36.23
2018-05-14T03:24:38.842Z,37.43
2018-05-14T03:27:06.352Z,38.73
2018-05-14T03:29:33.878Z,34.60
2018-05-14T03:32:01.530Z,41.93
2018-05-14T03:34:29.052Z,39.30
2018-05-14T03:36:57.353Z,38.77
2018-05-14T03:39:24.894Z,39.60
2018-05-14T03:41:53.172Z,41.23
2018-05-14T03:44:21.458Z,45.10
2018-05-14T03:46:49.852Z,49.93
2018-05-14T03:49:17.364Z,51.20
2018-05-14T03:51:44.893Z,49.87
2018-05-14T03:54:12.430Z,58.37
2018-05-14T03:56:39.977Z,57.53
2018-05-14T03:59:19.471Z,55.53
2018-05-14T04:01:59.030Z,62.67
2018-05-14T04:04:39.027Z,64.10
2018-05-14T04:07:06.549Z,69.20
2018-05-14T04:09:34.836Z,68.60
2018-05-14T04:12:03.132Z,67.17
2018-05-14T04:14:30.648Z,72.23
2018-05-14T04:16:59.204Z,68.87
2018-05-14T04:19:28.351Z,79.80
2018-05-14T04:21:56.653Z,72.87
2018-05-14T04:24:24.238Z,74.87
2018-05-14T04:26:51.783Z,85.40
2018-05-14T04:29:19.291Z,80.87
2018-05-14T04:31:46.812Z,76.03
2018-05-14T04:34:14.355Z,74.63
2018-05-14T04:36:41.925Z,79.70
2018-05-14T04:39:09.464Z,86.17
2018-05-14T04:41:37.033Z,74.63
2018-05-14T04:44:04.599Z,75.57
2018-05-14T04:46:32.120Z,74.73
2018-05-14T04:49:00.466Z,79.40
2018-05-14T04:51:27.968Z,83.20
2018-05-14T04:53:56.260Z,77.10
2018-05-14T04:56:23.835Z,81.43
2018-05-14T04:58:51.396Z,80.10
2018-05-14T05:01:18.929Z,88.27
2018-05-14T05:03:47.230Z,88.20
2018-05-14T05:06:14.796Z,86.67
2018-05-14T05:08:42.357Z,97.90
2018-05-14T05:11:09.911Z,95.93
2018-05-14T05:13:37.437Z,92.87
2018-05-14T05:16:05.768Z,97.53
2018-05-14T05:18:33.416Z,93.00
2018-05-14T05:21:00.948Z,95.03
2018-05-14T05:23:29.255Z,110.43
2018-05-14T05:25:56.787Z,98.43
2018-05-14T05:28:25.116Z,108.33
2018-05-14T05:30:52.643Z,114.33
2018-05-14T05:33:20.179Z,116.30
2018-05-14T05:35:48.473Z,122.83
2018-05-14T05:38:16.036Z,129.47
2018-05-14T05:40:43.575Z,119.07
2018-05-14T05:43:12.091Z,113.70
2018-05-14T05:45:39.636Z,120.87
2018-05-14T05:48:07.217Z,122.73
2018-05-14T05:50:34.736Z,132.13
2018-05-14T05:53:03.019Z,131.73
2018-05-14T05:55:31.426Z,124.20
2018-05-14T05:57:58.968Z,112.63
2018-05-14T06:00:26.503Z,106.13
2018-05-14T06:02:54.902Z,110.50
2018-05-14T06:05:23.187Z,121.40
2018-05-14T06:07:50.764Z,126.30
2018-05-14T06:10:18.298Z,114.83
2018-05-14T06:12:46.606Z,107.97
2018-05-14T06:15:14.139Z,121.27
2018-05-14T06:17:42.472Z,116.37
2018-05-14T06:20:10.019Z,102.67
2018-05-14T06:22:37.540Z,111.93
2018-05-14T06:25:05.075Z,106.47
2018-05-14T06:27:33.392Z,107.07
2018-05-14T06:30:00.906Z,107.70
2018-05-14T06:32:28.722Z,103.83
2018-05-14T06:34:57.816Z,116.20
2018-05-14T06:37:25.350Z,115.67
2018-05-14T06:39:53.654Z,105.23
2018-05-14T06:42:21.207Z,104.07
2018-05-14T06:44:48.731Z,109.97
2018-05-14T06:47:16.264Z,105.23
2018-05-14T06:49:43.811Z,109.27
2018-05-14T06:52:11.348Z,114.23
2018-05-14T06:54:38.898Z,102.37
2018-05-14T06:57:07.298Z,103.77
2018-05-14T06:59:34.818Z,97.83
2018-05-14T07:02:03.168Z,98.80
2018-05-14T07:04:30.720Z,95.73
2018-05-14T07:06:58.242Z,95.37
2018-05-14T07:09:25.781Z,90.87
2018-05-14T07:11:54.070Z,88.23
2018-05-14T07:14:22.359Z,89.37
2018-05-14T07:16:49.927Z,81.70
2018-05-14T07:19:17.511Z,80.93
2018-05-14T07:21:45.054Z,84.60
2018-05-14T07:24:12.599Z,78.33
2018-05-14T07:26:40.373Z,77.57
2018-05-14T07:29:08.436Z,80.77
2018-05-14T07:31:36.010Z,62.50
2018-05-14T07:34:03.534Z,83.73
2018-05-14T07:36:31.826Z,78.43
2018-05-14T07:39:00.231Z,75.27
2018-05-14T07:41:27.788Z,84.70
2018-05-14T07:43:55.320Z,72.20
2018-05-14T07:46:23.633Z,73.03
2018-05-14T07:48:51.229Z,90.40
2018-05-14T07:51:18.767Z,93.23
2018-05-14T07:53:46.410Z,88.00
2018-05-14T07:56:13.946Z,92.40
2018-05-14T07:58:42.243Z,95.97
2018-05-14T08:01:09.816Z,94.53
2018-05-14T08:03:37.371Z,102.33
2018-05-14T08:06:04.913Z,92.90
2018-05-14T08:08:32.448Z,100.80
2018-05-14T08:11:00.763Z,95.50
2018-05-14T08:13:29.545Z,91.57
2018-05-14T08:15:57.103Z,95.73
2018-05-14T08:18:24.645Z,88.97
2018-05-14T08:20:52.944Z,96.30
2018-05-14T08:23:20.496Z,89.70
2018-05-14T08:25:48.024Z,90.37
2018-05-14T08:28:16.322Z,101.67
2018-05-14T08:30:44.723Z,93.63
2018-05-14T08:33:12.903Z,82.10
2018-05-14T08:35:40.445Z,88.97
2018-05-14T08:38:08.050Z,92.27
2018-05-14T08:40:35.548Z,82.57
2018-05-14T08:43:03.837Z,86.70
2018-05-14T08:45:31.417Z,77.70
2018-05-14T08:47:59.075Z,81.40
2018-05-14T08:50:26.535Z,79.57
2018-05-14T08:52:54.081Z,81.73
2018-05-14T08:55:21.615Z,65.67
2018-05-14T08:57:54.401Z,60.87
2018-05-14T09:00:22.690Z,62.47
2018-05-14T09:02:50.990Z,65.37
2018-05-14T09:05:18.557Z,58.10
2018-05-14T09:07:46.109Z,67.63
2018-05-14T09:10:15.100Z,62.83
2018-05-14T09:12:42.645Z,63.83
2018-05-14T09:15:11.303Z,60.17
2018-05-14T09:17:39.611Z,68.87
2018-05-14T09:20:07.902Z,59.80
2018-05-14T09:22:35.424Z,60.00
2018-05-14T09:25:02.959Z,57.67
2018-05-14T09:27:30.806Z,50.20
2018-05-14T09:29:58.358Z,49.17
2018-05-14T09:32:26.104Z,55.00
2018-05-14T09:34:54.636Z,52.67
2018-05-14T09:37:22.329Z,52.47
2018-05-14T09:39:49.802Z,52.93
2018-05-14T09:42:18.196Z,49.97
2018-05-14T09:44:45.751Z,44.97
2018-05-14T09:47:13.276Z,45.43
2018-05-14T09:49:41.596Z,46.57
2018-05-14T09:52:09.385Z,48.60
2018-05-14T09:54:36.683Z,40.43
2018-05-14T09:57:05.093Z,40.83
2018-05-14T09:59:32.653Z,39.43
2018-05-14T10:02:00.231Z,37.53
2018-05-14T10:04:27.759Z,38.23
2018-05-14T10:06:57.690Z,39.57
2018-05-14T10:09:25.241Z,37.73
2018-05-14T10:11:53.546Z,40.47
2018-05-14T10:14:21.101Z,37.97
2018-05-14T10:16:48.631Z,37.03
2018-05-14T10:19:16.936Z,39.60
2018-05-14T10:21:44.584Z,35.83
2018-05-14T10:24:12.136Z,36.43
2018-05-14T10:26:40.881Z,39.90
2018-05-14T10:29:08.414Z,39.07
2018-05-14T10:31:36.041Z,36.03
2018-05-14T10:34:04.347Z,38.17
2018-05-14T10:36:31.913Z,37.53
2018-05-14T10:38:59.443Z,36.60
2018-05-14T10:41:27.849Z,38.73
2018-05-14T10:43:55.373Z,37.70
2018-05-14T10:46:23.675Z,32.80
2018-05-14T10:48:51.231Z,33.57
2018-05-14T10:51:18.799Z,36.60
2018-05-14T10:53:46.357Z,37.07
2018-05-14T10:56:13.927Z,40.87
2018-05-14T10:58:41.539Z,37.50
2018-05-14T11:01:09.035Z,39.43
2018-05-14T11:03:36.594Z,38.97
2018-05-14T11:06:04.117Z,36.70
2018-05-14T11:08:31.639Z,42.53
2018-05-14T11:10:59.293Z,38.30
2018-05-14T11:13:26.844Z,39.97
2018-05-14T11:15:54.369Z,39.63
2018-05-14T11:18:22.671Z,40.23
2018-05-14T11:20:50.197Z,37.30
2018-05-14T11:23:18.508Z,41.33
2018-05-14T11:25:46.034Z,43.90
2018-05-14T11:28:13.577Z,37.60
2018-05-14T11:30:41.206Z,39.17
2018-05-14T11:33:08.734Z,41.03
2018-05-14T11:35:37.018Z,37.50
2018-05-14T11:38:05.406Z,37.00
2018-05-14T11:40:32.937Z,37.60
2018-05-14T11:43:01.223Z,38.20
2018-05-14T11:45:29.545Z,37.20
2018-05-14T11:47:57.197Z,36.20
2018-05-14T11:50:24.757Z,36.03
2018-05-14T11:52:52.275Z,36.07
2018-05-14T11:55:20.680Z,39.63
2018-05-14T11:57:48.208Z,36.70
2018-05-14T12:00:15.719Z,35.43
2018-05-14T12:02:43.250Z,38.20
2018-05-14T12:05:10.846Z,37.23
2018-05-14T12:07:38.389Z,32.17
2018-05-14T12:10:06.008Z,36.10
2018-05-14T12:12:33.515Z,34.47
2018-05-14T12:15:01.084Z,35.23
2018-05-14T12:17:28.614Z,37.97
2018-05-14T12:19:56.908Z,34.07
2018-05-14T12:22:24.472Z,33.83
2018-05-14T12:24:52.004Z,37.23
2018-05-14T12:27:20.292Z,34.87
2018-05-14T12:29:47.860Z,38.77
2018-05-14T12:32:15.422Z,34.27
2018-05-14T12:34:42.944Z,37.20
2018-05-14T12:37:10.551Z,36.43
2018-05-14T12:39:38.074Z,35.27
2018-05-14T12:42:06.480Z,37.73
2018-05-14T12:44:34.033Z,34.87
2018-05-14T12:47:02.434Z,39.17
2018-05-14T12:49:29.964Z,40.50
2018-05-14T12:51:58.306Z,39.33
2018-05-14T12:54:25.834Z,38.27
2018-05-14T12:56:53.352Z,37.83
2018-05-14T12:59:21.668Z,35.70
2018-05-14T13:01:49.198Z,38.03
2018-05-14T13:04:17.508Z,38.07
2018-05-14T13:06:45.036Z,36.50
2018-05-14T13:09:13.337Z,36.30
2018-05-14T13:11:40.907Z,36.93
2018-05-14T13:14:08.429Z,38.83
2018-05-14T13:16:36.841Z,34.53
2018-05-14T13:19:04.357Z,37.57
2018-05-14T13:21:31.877Z,38.10
2018-05-14T13:23:59.525Z,35.40
2018-05-14T13:26:27.043Z,38.60
2018-05-14T13:28:55.337Z,37.97
2018-05-14T13:31:23.761Z,37.20
2018-05-14T13:33:51.299Z,38.37
2018-05-14T13:36:18.883Z,36.63
2018-05-14T13:38:46.432Z,39.53
2018-05-14T13:41:13.956Z,37.30
2018-05-14T13:43:42.239Z,37.47
2018-05-14T13:46:09.827Z,37.37
2018-05-14T13:48:37.353Z,34.90
2018-05-14T13:51:05.740Z,36.57
2018-05-14T13:53:33.201Z,36.83
2018-05-14T13:56:01.500Z,36.83
2018-05-14T13:58:29.019Z,38.57
2018-05-14T14:00:57.309Z,37.70
2018-05-14T14:03:25.604Z,36.50
2018-05-14T14:05:53.132Z,34.83
2018-05-14T14:08:21.436Z,36.73
2018-05-14T14:10:48.951Z,39.67
2018-05-14T14:13:16.469Z,37.07
2018-05-14T14:15:44.022Z,36.97
2018-05-14T14:18:11.565Z,35.67
2018-05-14T14:20:39.096Z,37.83
2018-05-14T14:23:06.657Z,36.83
2018-05-14T14:25:34.176Z,36.30
2018-05-14T14:28:01.697Z,36.27
2018-05-14T14:30:29.996Z,37.10
2018-05-14T14:32:57.572Z,41.13
2018-05-14T14:35:25.091Z,35.83
2018-05-14T14:37:53.515Z,38.20
2018-05-14T14:40:21.038Z,36.87
2018-05-14T14:42:49.322Z,35.57
2018-05-14T14:45:16.991Z,35.27
2018-05-14T14:47:44.520Z,37.30
2018-05-14T14:50:12.843Z,36.97
2018-05-14T14:52:40.397Z,39.17
2018-05-14T14:55:07.920Z,36.23
2018-05-14T14:57:36.215Z,35.57
2018-05-14T15:00:04.525Z,36.83
2018-05-14T15:02:32.052Z,34.00
2018-05-14T15:05:00.352Z,36.63
2018-05-14T15:07:27.923Z,36.53
2018-05-14T15:09:55.451Z,36.93
2018-05-14T15:12:23.859Z,34.47
2018-05-14T15:14:51.388Z,35.33
2018-05-14T15:17:19.678Z,35.87
2018-05-14T15:19:47.269Z,35.90
2018-05-14T15:22:14.805Z,38.63
2018-05-14T15:24:42.335Z,33.60
2018-05-14T15:27:10.627Z,35.43
2018-05-14T15:29:39.010Z,35.97
2018-05-14T15:32:06.571Z,39.00
2018-05-14T15:34:34.159Z,36.63
2018-05-14T15:37:01.687Z,35.23
2018-05-14T15:39:30.002Z,35.17
2018-05-14T15:41:57.546Z,34.70
2018-05-14T15:44:25.113Z,39.80
2018-05-14T15:46:52.663Z,33.90
2018-05-14T15:49:20.199Z,33.10
2018-05-14T15:51:48.526Z,34.50
2018-05-14T15:54:16.076Z,39.57
2018-05-14T15:56:43.611Z,51.23
2018-05-14T15:59:11.137Z,47.03
2018-05-14T16:01:39.452Z,50.57
2018-05-14T16:04:07.002Z,52.03
2018-05-14T16:06:35.309Z,44.87
2018-05-14T16:09:02.861Z,48.03
2018-05-14T16:11:30.428Z,54.77
2018-05-14T16:13:57.991Z,47.70
2018-05-14T16:16:25.513Z,53.97
2018-05-14T16:18:53.822Z,50.33
2018-05-14T16:21:21.360Z,46.27
2018-05-14T16:23:49.659Z,53.27
2018-05-14T16:26:17.224Z,53.93
2018-05-14T16:28:44.783Z,49.80
2018-05-14T16:31:12.308Z,45.23
2018-05-14T16:33:40.608Z,48.53
2018-05-14T16:36:08.180Z,49.23
2018-05-14T16:38:35.711Z,46.83
2018-05-14T16:41:04.015Z,49.13
2018-05-14T16:43:31.595Z,48.70
2018-05-14T16:45:59.123Z,46.60
2018-05-14T16:48:26.665Z,50.87
2018-05-14T16:50:54.956Z,47.97
2018-05-14T16:53:23.329Z,45.27
2018-05-14T16:55:51.620Z,43.53
2018-05-14T16:58:19.160Z,43.80
2018-05-14T17:00:47.511Z,46.43
2018-05-14T17:03:15.204Z,44.77
2018-05-14T17:05:43.628Z,45.70
2018-05-14T17:08:11.157Z,48.27
2018-05-14T17:10:39.449Z,43.07
2018-05-14T17:13:07.000Z,42.53
2018-05-14T17:15:34.581Z,43.40
2018-05-14T17:18:02.121Z,47.77
2018-05-14T17:20:29.681Z,47.03
2018-05-14T17:22:57.291Z,49.30
2018-05-14T17:25:25.535Z,47.03
2018-05-14T17:27:53.104Z,49.37
2018-05-14T17:30:20.634Z,48.37
2018-05-14T17:32:48.171Z,44.90
2018-05-14T17:35:15.761Z,48.17
2018-05-14T17:37:43.346Z,50.40
2018-05-14T17:40:10.875Z,49.70
2018-05-14T17:42:38.464Z,50.97
2018-05-14T17:45:05.980Z,48.87
2018-05-14T17:47:34.274Z,53.20
2018-05-14T17:50:01.802Z,48.30
2018-05-14T17:52:29.431Z,44.40
2018-05-14T17:54:56.960Z,45.37
2018-05-14T17:57:24.543Z,47.63
2018-05-14T17:59:52.095Z,48.37
2018-05-14T18:02:19.623Z,48.37
2018-05-14T18:04:48.032Z,43.03
2018-05-14T18:07:15.594Z,44.80
2018-05-14T18:09:43.158Z,42.67
2018-05-14T18:12:10.736Z,46.60
2018-05-14T18:14:38.263Z,41.03
2018-05-14T18:17:05.796Z,49.50
2018-05-14T18:19:39.137Z,55.13
2018-05-14T18:22:12.760Z,48.57
2018-05-14T18:24:45.930Z,42.73
2018-05-14T18:27:13.472Z,51.73
2018-05-14T18:29:41.004Z,47.33
2018-05-14T18:32:08.546Z,42.43
2018-05-14T18:34:39.926Z,45.57
2018-05-14T18:37:08.328Z,45.60
2018-05-14T18:39:35.864Z,43.93
2018-05-14T18:42:05.165Z,45.03
2018-05-14T18:44:33.467Z,43.30
2018-05-14T18:47:00.993Z,40.67
2018-05-14T18:49:29.289Z,47.50
2018-05-14T18:51:57.686Z,44.63
2018-05-14T18:54:25.139Z,43.53
2018-05-14T18:56:52.708Z,45.23
2018-05-14T18:59:20.241Z,47.83
2018-05-14T19:01:48.557Z,42.10
2018-05-14T19:04:16.116Z,41.93
2018-05-14T19:06:43.638Z,49.00
2018-05-14T19:09:11.927Z,46.20
2018-05-14T19:11:45.138Z,40.47
2018-05-14T19:14:12.668Z,49.00
2018-05-14T19:16:46.576Z,49.53
2018-05-14T19:19:14.876Z,51.90
2018-05-14T19:21:42.408Z,48.20
2018-05-14T19:24:10.716Z,47.57
2018-05-14T19:26:38.305Z,48.90
2018-05-14T19:29:11.474Z,48.80
2018-05-14T19:31:39.004Z,49.93
2018-05-14T19:34:13.092Z,54.63
2018-05-14T19:36:40.717Z,50.67
2018-05-14T19:39:08.249Z,51.73
2018-05-14T19:41:36.568Z,46.83
2018-05-14T19:44:04.100Z,51.27
2018-05-14T19:46:31.633Z,54.03
2018-05-14T19:49:00.105Z,57.23
2018-05-14T19:51:27.623Z,56.13
2018-05-14T19:53:55.165Z,58.40
2018-05-14T19:56:22.724Z,56.70
2018-05-14T19:58:50.245Z,58.20
2018-05-14T20:01:17.782Z,59.40
2018-05-14T20:03:45.336Z,68.10
2018-05-14T20:06:12.873Z,66.53
2018-05-14T20:08:40.419Z,63.80
2018-05-14T20:11:07.994Z,65.70
2018-05-14T20:13:35.544Z,64.40
2018-05-14T20:16:03.071Z,71.23
2018-05-14T20:18:31.384Z,69.17
2018-05-14T20:20:58.920Z,70.63
2018-05-14T20:23:27.347Z,64.33
2018-05-14T20:25:54.981Z,69.43
2018-05-14T20:28:22.505Z,77.23
2018-05-14T20:30:50.083Z,69.93
2018-05-14T20:33:18.375Z,81.03
2018-05-14T20:35:45.907Z,77.83
2018-05-14T20:38:14.217Z,72.00
2018-05-14T20:40:41.783Z,82.90
2018-05-14T20:43:09.335Z,82.37
2018-05-14T20:45:36.911Z,84.73
2018-05-14T20:48:04.442Z,84.20
2018-05-14T20:50:32.735Z,88.03
2018-05-14T20:53:00.267Z,92.20
2018-05-14T20:55:27.866Z,89.40
2018-05-14T20:57:55.403Z,87.03
2018-05-14T21:00:23.692Z,89.00
2018-05-14T21:02:51.257Z,97.87
2018-05-14T21:05:18.778Z,90.50
2018-05-14T21:07:46.301Z,93.30
2018-05-14T21:10:13.842Z,89.07
2018-05-14T21:12:41.382Z,97.73
2018-05-14T21:15:09.691Z,101.87
2018-05-14T21:17:37.238Z,97.57
2018-05-14T21:20:04.765Z,96.70
2018-05-14T21:22:33.056Z,96.97
2018-05-14T21:25:01.472Z,106.07
2018-05-14T21:27:29.000Z,101.37
2018-05-14T21:29:56.571Z,102.90
2018-05-14T21:32:24.126Z,107.03
2018-05-14T21:34:51.668Z,108.97
2018-05-14T21:37:19.973Z,107.87
2018-05-14T21:39:47.534Z,103.53
2018-05-14T21:42:15.101Z,108.40
2018-05-14T21:44:42.634Z,116.87
2018-05-14T21:47:11.026Z,110.80
2018-05-14T21:49:38.551Z,114.00
2018-05-14T21:52:06.071Z,109.00
2018-05-14T21:54:33.615Z,118.90
2018-05-14T21:57:01.151Z,119.17
2018-05-14T21:59:29.561Z,119.30
2018-05-14T22:01:57.186Z,115.93
2018-05-14T22:04:24.637Z,118.57
2018-05-14T22:06:53.870Z,120.17
2018-05-14T22:09:21.405Z,117.00
2018-05-14T22:11:49.689Z,112.13
2018-05-14T22:14:18.091Z,120.67
2018-05-14T22:16:45.642Z,121.90
2018-05-14T22:19:13.215Z,120.60
2018-05-14T22:21:40.745Z,127.80
2018-05-14T22:24:09.053Z,123.97
2018-05-14T22:26:36.678Z,123.30
2018-05-14T22:29:04.262Z,121.03
2018-05-14T22:31:31.941Z,115.37
2018-05-14T22:33:59.491Z,137.70
2018-05-14T22:39:01.055Z,128.70
2018-05-14T22:41:28.616Z,122.37
2018-05-14T22:43:56.220Z,127.97
2018-05-14T22:46:23.812Z,130.50
2018-05-14T22:48:52.151Z,121.77
2018-05-14T22:51:19.901Z,118.67
2018-05-14T22:53:47.582Z,132.37
2018-05-14T22:56:15.148Z,117.57
2018-05-14T22:58:42.719Z,123.57
2018-05-14T23:01:10.307Z,126.70
2018-05-14T23:03:38.637Z,125.37
2018-05-14T23:06:06.202Z,124.90
2018-05-14T23:08:33.789Z,127.63
2018-05-14T23:11:01.407Z,128.03
2018-05-14T23:13:29.065Z,120.97
2018-05-14T23:15:56.597Z,126.20
2018-05-14T23:18:25.003Z,115.93
2018-05-14T23:20:52.527Z,117.13
2018-05-14T23:23:20.827Z,110.73
2018-05-14T23:25:48.344Z,111.90
2018-05-14T23:28:15.955Z,118.57
2018-05-14T23:30:43.492Z,121.47
2018-05-14T23:33:11.797Z,115.93
2018-05-14T23:35:39.317Z,110.97
2018-05-14T23:38:07.636Z,115.80
2018-05-14T23:40:35.161Z,115.00
2018-05-14T23:43:03.450Z,119.23
2018-05-14T23:45:31.759Z,113.90
2018-05-14T23:47:59.286Z,116.47
2018-05-14T23:50:27.592Z,118.43
2018-05-14T23:52:55.148Z,118.17
2018-05-14T23:55:22.690Z,120.40
2018-05-14T23:57:50.220Z,116.67
